Nearby METAR Reports

 

KMTN - Baltimore/Martin, Maryland, USA
Distance from station: SSE 8mi, 13km
Updated: Thu, 23-Oct-2014 12:51am EDT
Overcast
Overcast
 Wind from WNW
Wind: WNW 8 mph , 13 km/h, Gust: 23 mph , 37 km/h
Temperature: 54°F , 12°C
Dew Point: 46°F , 8°C
Humidity: 77%
Barometer: 29.87 inHg , 1011.5 hPa
Clouds: Overcast
Visibility: 10 miles , 16 km
Cloud details: Overcast 3300 ft
2014/10/23 04:51 KMTN 230451Z AUTO 30007G20KT 10SM OVC033 12/08 A2987 RMK AO2
KDMH - Baltimore/Dwntwn, Maryland, USA
Distance from station: SW 12mi, 19km
Updated: Thu, 23-Oct-2014 12:54am EDT

 
Temperature: 54°F , 12°C
Dew Point: 43°F , 6°C
Humidity: 67%
Barometer: 29.88 inHg , 1011.9 hPa
2014/10/23 04:54 KDMH 230454Z AUTO 12/06 A2988 RMK AO1 SLP118 T01220061 401330122
 
KBWI - Balto/Wash Intl, Maryland, USA
Distance from station: SSW 20mi, 33km
Updated: Thu, 23-Oct-2014 12:54am EDT
Overcast
Overcast
 Wind from WNW
Wind: WNW 12 mph , 19 km/h, Gust: 20 mph , 31 km/h
Temperature: 54°F , 12°C
Dew Point: 43°F , 6°C
Humidity: 67%
Barometer: 29.88 inHg , 1011.9 hPa
Clouds: Overcast
Visibility: 10 miles , 16 km
Cloud details: Overcast 3100 ft
2014/10/23 04:54 KBWI 230454Z 30010G17KT 10SM OVC031 12/06 A2988 RMK AO2 SLP118 T01170061 401280111
KDMW - Carroll Cnty, Maryland, USA
Distance from station: WNW 30mi, 48km
Updated: Thu, 23-Oct-2014 12:50am EDT
Overcast
Overcast
 Wind from NW
Wind: NW 8 mph , 13 km/h, Gust: 16 mph , 26 km/h
Temperature: 50°F , 10°C
Wind Chill: 47°F , 8°C
Dew Point: 45°F , 7°C
Humidity: 82%
Barometer: 29.91 inHg , 1012.9 hPa
Clouds: Overcast
Visibility: 10 miles , 16 km
Cloud details: Overcast 2700 ft
2014/10/23 04:50 KDMW 230450Z AUTO 32007G14KT 10SM OVC027 10/07 A2991 RMK AO2
 
KNAK - Annapolis/Naval, Maryland, USA
Distance from station: S 30mi, 48km
Updated: Thu, 23-Oct-2014 12:54am EDT
Overcast
Overcast
 Wind from WNW
Wind: WNW 13 mph , 20 km/h, Gust: 23 mph , 37 km/h
Temperature: 55°F , 13°C
Dew Point: 45°F , 7°C
Humidity: 67%
Barometer: 29.86 inHg , 1011.2 hPa
Clouds: Overcast
Visibility: 10 miles , 16 km
Cloud details: Mostly cloudy 3600 ft
Overcast 6000 ft
2014/10/23 04:54 KNAK 230454Z AUTO 30011G20KT 10SM BKN036 OVC060 13/07 A2986 RMK AO2 SLP115 T01280072 401440128
KW29 - Stevensville, Maryland, USA
Distance from station: SSE 31mi, 50km
Updated: Thu, 23-Oct-2014 12:52am EDT

 Wind from NW
Wind: NW 15 mph , 24 km/h, Gust: 28 mph , 44 km/h
Temperature: 54°F , 12°C
Dew Point: 45°F , 7°C
Humidity: 72%
Barometer: 29.86 inHg , 1011.2 hPa
Visibility: 10 miles , 16 km
2014/10/23 04:52 KW29 230452Z AUTO 31013G24KT 10SM 12/07 A2986 RMK AO1
 
KCGS - College Park, Maryland, USA
Distance from station: SW 38mi, 61km
Updated: Thu, 23-Oct-2014 12:50am EDT
Overcast
Overcast
 Wind from WNW
Wind: WNW 10 mph , 17 km/h
Temperature: 54°F , 12°C
Dew Point: 43°F , 6°C
Humidity: 67%
Barometer: 29.90 inHg , 1012.5 hPa
Clouds: Overcast
Visibility: 10 miles , 16 km
Cloud details: Overcast 3400 ft
2014/10/23 04:50 KCGS 230450Z AUTO 30009KT 270V330 10SM OVC034 12/06 A2990 RMK AO1
KGAI - Gaithersburg, Maryland, USA
Distance from station: WSW 40mi, 65km
Updated: Thu, 23-Oct-2014 12:55am EDT
Overcast
Overcast
 Wind from WNW
Wind: WNW 15 mph , 24 km/h, Gust: 21 mph , 33 km/h
Temperature: 50°F , 10°C
Wind Chill: 45°F , 7°C
Dew Point: 41°F , 5°C
Humidity: 71%
Barometer: 29.95 inHg , 1014.2 hPa
Clouds: Overcast
Visibility: 10 miles , 16 km
Cloud details: Overcast 3200 ft
2014/10/23 04:55 KGAI 230455Z 30013G18KT 10SM OVC032 10/05 A2995 RMK AO1
 
KTHV - York, Pennsylvania, USA
Distance from station: NNW 40mi, 65km
Updated: Thu, 23-Oct-2014 12:53am EDT
Overcast
Overcast
 Wind from NW
Wind: NW 14 mph , 22 km/h, Gust: 18 mph , 30 km/h
Temperature: 52°F , 11°C
Dew Point: 43°F , 6°C
Humidity: 72%
Barometer: 29.91 inHg , 1012.9 hPa
Clouds: Overcast
Visibility: 10 miles , 16 km
Cloud details: Overcast 2600 ft
2014/10/23 04:53 KTHV 230453Z AUTO 32012G16KT 10SM OVC026 11/06 A2991 RMK AO2 SLP132 T01060061 401280106
KFDK - Frederick, Maryland, USA
Distance from station: W 47mi, 75km
Updated: Thu, 23-Oct-2014 12:50am EDT
Partly cloudy
Partly cloudy
 Wind from NNW
Wind: NNW 8 mph , 13 km/h, Gust: 18 mph , 30 km/h
Temperature: 55°F , 13°C
Dew Point: 41°F , 5°C
Humidity: 59%
Barometer: 29.97 inHg , 1014.9 hPa
Clouds: Partly cloudy
Visibility: 10 miles , 16 km
Cloud details: Partly cloudy 3600 ft
2014/10/23 04:50 KFDK 230450Z AUTO 33007G16KT 10SM SCT036 13/05 A2997 RMK AO2 LTG DSNT E
 
KESN - Easton/Newnam, Maryland, USA
Distance from station: SSE 48mi, 78km
Updated: Thu, 23-Oct-2014 1:06am EDT
Overcast
Overcast
 Wind from NNW
Wind: NNW 18 mph , 30 km/h, Gust: 29 mph , 46 km/h
Temperature: 55°F , 13°C
Dew Point: 48°F , 9°C
Humidity: 77%
Barometer: 29.87 inHg , 1011.5 hPa
Clouds: Overcast
Visibility: 10 miles , 16 km
Cloud details: Mostly cloudy 3100 ft
Mostly cloudy 3600 ft
Overcast 6000 ft
2014/10/23 05:06 KESN 230506Z AUTO 34016G25KT 10SM BKN031 BKN036 OVC060 13/09 A2987 RMK AO2 T01310090
KDCA - Washington/Natl, Washington D.c., USA
Distance from station: SW 49mi, 79km
Updated: Thu, 23-Oct-2014 12:52am EDT
Mostly cloudy
Mostly cloudy
 Wind from NW
Wind: NW 17 mph , 28 km/h, Gust: 24 mph , 39 km/h
Temperature: 55°F , 13°C
Dew Point: 41°F , 5°C
Humidity: 59%
Barometer: 29.92 inHg , 1013.2 hPa
Clouds: Mostly cloudy
Visibility: 10 miles , 16 km
Cloud details: Partly cloudy 3500 ft
Mostly cloudy 6500 ft
2014/10/23 04:52 KDCA 230452Z 31015G21KT 10SM SCT035 BKN065 13/05 A2992 RMK AO2 SLP131 T01280050 401440128
 
KLNS - Lancaster, Pennsylvania, USA
Distance from station: N 49mi, 79km
Updated: Thu, 23-Oct-2014 12:53am EDT
Light rain, Overcast
Light rain, Overcast
 Wind from NNW
Wind: NNW 15 mph , 24 km/h, Gust: 26 mph , 43 km/h
Temperature: 52°F , 11°C
Dew Point: 43°F , 6°C
Humidity: 72%
Barometer: 29.86 inHg , 1011.2 hPa
Summary: Light rain
Clouds: Overcast
Visibility: 10 miles , 16 km
Cloud details: Overcast 2400 ft
2014/10/23 04:53 KLNS 230453Z AUTO 33013G23KT 10SM -RA OVC024 11/06 A2986 RMK AO2 RAB50 SLP113 P0000 T01060061 401280106
KILG - Wilmington, Delaware, USA
Distance from station: ENE 50mi, 81km
Updated: Thu, 23-Oct-2014 12:51am EDT
Light rain, Overcast
Light rain, Overcast
 Wind from NNW
Wind: NNW 20 mph , 31 km/h
Temperature: 54°F , 12°C
Dew Point: 46°F , 8°C
Humidity: 77%
Barometer: 29.80 inHg , 1009.1 hPa
Summary: Light rain
Clouds: Overcast
Visibility: 10 miles , 16 km
Cloud details: Few Clouds 4000 ft
Mostly cloudy 6500 ft
Overcast 8000 ft
2014/10/23 04:51 KILG 230451Z 33017KT 10SM -RA FEW040 BKN065 OVC080 12/08 A2980 RMK AO2 RAB30 SLP090 P0000 T01170078 401390111